sensor_id;sensor_type;location;lat;lon;timestamp;P1;durP1;ratioP1;P2;durP2;ratioP2
10007;SDS011;5043;41.766;26.204;2023-06-26T00:02:24;6.32;;;4.38;;
10007;SDS011;5043;41.766;26.204;2023-06-26T00:04:49;9.98;;;3.67;;
10007;SDS011;5043;41.766;26.204;2023-06-26T00:07:18;4.13;;;3.58;;
10007;SDS011;5043;41.766;26.204;2023-06-26T00:09:44;12.05;;;3.58;;
10007;SDS011;5043;41.766;26.204;2023-06-26T00:12:10;7.10;;;3.22;;
10007;SDS011;5043;41.766;26.204;2023-06-26T00:14:36;10.00;;;3.33;;
10007;SDS011;5043;41.766;26.204;2023-06-26T00:17:01;4.70;;;3.05;;
10007;SDS011;5043;41.766;26.204;2023-06-26T00:19:27;4.70;;;3.10;;
10007;SDS011;5043;41.766;26.204;2023-06-26T00:21:52;5.82;;;3.63;;
10007;SDS011;5043;41.766;26.204;2023-06-26T00:24:18;6.32;;;3.95;;
10007;SDS011;5043;41.766;26.204;2023-06-26T00:26:46;3.72;;;3.25;;
10007;SDS011;5043;41.766;26.204;2023-06-26T00:29:12;5.38;;;3.75;;
10007;SDS011;5043;41.766;26.204;2023-06-26T00:31:37;5.88;;;4.05;;
10007;SDS011;5043;41.766;26.204;2023-06-26T00:34:05;6.03;;;4.10;;
10007;SDS011;5043;41.766;26.204;2023-06-26T00:36:30;5.50;;;3.80;;
10007;SDS011;5043;41.766;26.204;2023-06-26T00:38:56;5.82;;;3.67;;
10007;SDS011;5043;41.766;26.204;2023-06-26T00:41:22;6.20;;;3.67;;
10007;SDS011;5043;41.766;26.204;2023-06-26T00:43:47;6.35;;;3.90;;
10007;SDS011;5043;41.766;26.204;2023-06-26T00:46:13;6.00;;;3.45;;
10007;SDS011;5043;41.766;26.204;2023-06-26T00:48:39;3.60;;;3.30;;
10007;SDS011;5043;41.766;26.204;2023-06-26T00:51:07;4.40;;;3.38;;
10007;SDS011;5043;41.766;26.204;2023-06-26T00:53:33;5.15;;;3.78;;
10007;SDS011;5043;41.766;26.204;2023-06-26T00:55:59;5.03;;;2.83;;
10007;SDS011;5043;41.766;26.204;2023-06-26T00:58:25;6.80;;;3.92;;
10007;SDS011;5043;41.766;26.204;2023-06-26T01:00:51;8.80;;;3.25;;
10007;SDS011;5043;41.766;26.204;2023-06-26T01:03:18;11.38;;;3.17;;
10007;SDS011;5043;41.766;26.204;2023-06-26T01:05:44;4.43;;;3.45;;
10007;SDS011;5043;41.766;26.204;2023-06-26T01:08:13;5.97;;;3.70;;
10007;SDS011;5043;41.766;26.204;2023-06-26T01:10:40;5.50;;;3.00;;
10007;SDS011;5043;41.766;26.204;2023-06-26T01:13:05;8.18;;;3.72;;
10007;SDS011;5043;41.766;26.204;2023-06-26T01:15:31;5.28;;;3.38;;
10007;SDS011;5043;41.766;26.204;2023-06-26T01:17:57;5.65;;;3.47;;
10007;SDS011;5043;41.766;26.204;2023-06-26T01:20:29;6.35;;;3.47;;
10007;SDS011;5043;41.766;26.204;2023-06-26T01:28:41;13.38;;;7.35;;
10007;SDS011;5043;41.766;26.204;2023-06-26T01:31:08;7.80;;;5.80;;
10007;SDS011;5043;41.766;26.204;2023-06-26T01:33:35;4.53;;;3.13;;
10007;SDS011;5043;41.766;26.204;2023-06-26T01:36:02;4.72;;;3.15;;
10007;SDS011;5043;41.766;26.204;2023-06-26T01:38:28;4.93;;;2.60;;
10007;SDS011;5043;41.766;26.204;2023-06-26T01:40:54;5.32;;;2.80;;
10007;SDS011;5043;41.766;26.204;2023-06-26T01:43:31;2.70;;;2.50;;
10007;SDS011;5043;41.766;26.204;2023-06-26T01:46:06;3.80;;;2.58;;
10007;SDS011;5043;41.766;26.204;2023-06-26T01:48:50;6.15;;;3.20;;
10007;SDS011;5043;41.766;26.204;2023-06-26T01:51:16;2.90;;;2.63;;
10007;SDS011;5043;41.766;26.204;2023-06-26T01:53:45;4.10;;;3.28;;
10007;SDS011;5043;41.766;26.204;2023-06-26T01:56:17;3.10;;;2.80;;
10007;SDS011;5043;41.766;26.204;2023-06-26T01:58:45;5.68;;;3.08;;
10007;SDS011;5043;41.766;26.204;2023-06-26T02:01:15;3.60;;;3.15;;
10007;SDS011;5043;41.766;26.204;2023-06-26T02:03:41;5.95;;;3.33;;
10007;SDS011;5043;41.766;26.204;2023-06-26T02:06:07;12.65;;;3.47;;
10007;SDS011;5043;41.766;26.204;2023-06-26T02:08:32;7.22;;;3.92;;
10007;SDS011;5043;41.766;26.204;2023-06-26T02:10:57;8.65;;;4.00;;
10007;SDS011;5043;41.766;26.204;2023-06-26T02:13:23;11.60;;;4.38;;
10007;SDS011;5043;41.766;26.204;2023-06-26T02:15:48;9.68;;;4.13;;
10007;SDS011;5043;41.766;26.204;2023-06-26T02:18:14;6.13;;;4.20;;
10007;SDS011;5043;41.766;26.204;2023-06-26T02:20:39;8.20;;;4.32;;
10007;SDS011;5043;41.766;26.204;2023-06-26T02:23:05;5.85;;;4.50;;
10007;SDS011;5043;41.766;26.204;2023-06-26T02:25:30;9.13;;;4.68;;
10007;SDS011;5043;41.766;26.204;2023-06-26T02:27:56;10.48;;;5.93;;
10007;SDS011;5043;41.766;26.204;2023-06-26T02:30:21;9.20;;;4.97;;
10007;SDS011;5043;41.766;26.204;2023-06-26T02:32:47;9.20;;;5.38;;
10007;SDS011;5043;41.766;26.204;2023-06-26T02:35:12;15.57;;;4.97;;
10007;SDS011;5043;41.766;26.204;2023-06-26T02:37:38;6.95;;;5.80;;
10007;SDS011;5043;41.766;26.204;2023-06-26T02:40:03;19.33;;;5.55;;
10007;SDS011;5043;41.766;26.204;2023-06-26T02:42:31;10.35;;;5.30;;
10007;SDS011;5043;41.766;26.204;2023-06-26T02:44:56;12.75;;;6.32;;
10007;SDS011;5043;41.766;26.204;2023-06-26T02:47:22;14.73;;;6.45;;
10007;SDS011;5043;41.766;26.204;2023-06-26T02:49:47;11.23;;;5.93;;
10007;SDS011;5043;41.766;26.204;2023-06-26T02:52:13;8.65;;;4.93;;
10007;SDS011;5043;41.766;26.204;2023-06-26T02:54:38;6.30;;;4.78;;
10007;SDS011;5043;41.766;26.204;2023-06-26T02:57:04;10.50;;;4.97;;
10007;SDS011;5043;41.766;26.204;2023-06-26T02:59:29;6.68;;;4.93;;
10007;SDS011;5043;41.766;26.204;2023-06-26T03:01:55;7.50;;;4.80;;
10007;SDS011;5043;41.766;26.204;2023-06-26T03:04:20;6.70;;;5.03;;
10007;SDS011;5043;41.766;26.204;2023-06-26T03:06:46;7.40;;;4.72;;
10007;SDS011;5043;41.766;26.204;2023-06-26T03:09:12;9.55;;;4.78;;
10007;SDS011;5043;41.766;26.204;2023-06-26T03:11:37;5.07;;;4.47;;
10007;SDS011;5043;41.766;26.204;2023-06-26T03:14:03;9.20;;;4.88;;
10007;SDS011;5043;41.766;26.204;2023-06-26T03:16:28;8.63;;;5.28;;
10007;SDS011;5043;41.766;26.204;2023-06-26T03:18:53;12.52;;;5.43;;
10007;SDS011;5043;41.766;26.204;2023-06-26T03:21:19;12.60;;;5.50;;
10007;SDS011;5043;41.766;26.204;2023-06-26T03:23:44;10.20;;;5.30;;
10007;SDS011;5043;41.766;26.204;2023-06-26T03:26:10;10.70;;;5.47;;
10007;SDS011;5043;41.766;26.204;2023-06-26T03:28:35;12.63;;;6.38;;
10007;SDS011;5043;41.766;26.204;2023-06-26T03:31:01;9.32;;;6.13;;
10007;SDS011;5043;41.766;26.204;2023-06-26T03:33:26;12.45;;;5.75;;
10007;SDS011;5043;41.766;26.204;2023-06-26T03:35:52;10.32;;;5.60;;
10007;SDS011;5043;41.766;26.204;2023-06-26T03:38:17;20.42;;;6.25;;
10007;SDS011;5043;41.766;26.204;2023-06-26T03:40:43;8.63;;;5.43;;
10007;SDS011;5043;41.766;26.204;2023-06-26T03:43:08;14.77;;;6.13;;
10007;SDS011;5043;41.766;26.204;2023-06-26T03:45:33;18.40;;;5.90;;
10007;SDS011;5043;41.766;26.204;2023-06-26T03:47:59;7.82;;;4.97;;
10007;SDS011;5043;41.766;26.204;2023-06-26T03:50:24;17.13;;;6.25;;
10007;SDS011;5043;41.766;26.204;2023-06-26T03:52:50;9.48;;;5.15;;
10007;SDS011;5043;41.766;26.204;2023-06-26T03:55:17;10.90;;;5.35;;
10007;SDS011;5043;41.766;26.204;2023-06-26T03:57:43;16.73;;;4.97;;
10007;SDS011;5043;41.766;26.204;2023-06-26T04:00:08;12.35;;;5.53;;
10007;SDS011;5043;41.766;26.204;2023-06-26T04:02:34;11.32;;;5.20;;
10007;SDS011;5043;41.766;26.204;2023-06-26T04:05:00;8.50;;;4.90;;
10007;SDS011;5043;41.766;26.204;2023-06-26T04:07:26;24.05;;;5.90;;
10007;SDS011;5043;41.766;26.204;2023-06-26T04:09:51;13.68;;;6.00;;
10007;SDS011;5043;41.766;26.204;2023-06-26T04:12:17;10.15;;;5.63;;
10007;SDS011;5043;41.766;26.204;2023-06-26T04:14:42;16.27;;;6.20;;
10007;SDS011;5043;41.766;26.204;2023-06-26T04:17:08;9.80;;;5.80;;
10007;SDS011;5043;41.766;26.204;2023-06-26T04:19:33;12.88;;;5.65;;
10007;SDS011;5043;41.766;26.204;2023-06-26T04:22:01;12.88;;;6.18;;
10007;SDS011;5043;41.766;26.204;2023-06-26T04:24:26;14.70;;;6.45;;
10007;SDS011;5043;41.766;26.204;2023-06-26T04:26:52;12.93;;;6.05;;
10007;SDS011;5043;41.766;26.204;2023-06-26T04:29:17;15.88;;;6.53;;
10007;SDS011;5043;41.766;26.204;2023-06-26T04:31:42;15.35;;;6.35;;
10007;SDS011;5043;41.766;26.204;2023-06-26T04:34:12;14.73;;;6.03;;
10007;SDS011;5043;41.766;26.204;2023-06-26T04:36:38;11.48;;;5.55;;
10007;SDS011;5043;41.766;26.204;2023-06-26T04:39:04;16.63;;;6.60;;
10007;SDS011;5043;41.766;26.204;2023-06-26T04:41:31;18.25;;;6.15;;
10007;SDS011;5043;41.766;26.204;2023-06-26T04:43:56;12.18;;;6.38;;
10007;SDS011;5043;41.766;26.204;2023-06-26T04:46:22;13.00;;;5.97;;
10007;SDS011;5043;41.766;26.204;2023-06-26T04:48:47;13.10;;;5.82;;
10007;SDS011;5043;41.766;26.204;2023-06-26T04:51:13;15.73;;;6.00;;
10007;SDS011;5043;41.766;26.204;2023-06-26T04:53:38;7.20;;;5.28;;
10007;SDS011;5043;41.766;26.204;2023-06-26T04:56:03;11.52;;;5.78;;
10007;SDS011;5043;41.766;26.204;2023-06-26T04:58:29;9.23;;;5.43;;
10007;SDS011;5043;41.766;26.204;2023-06-26T05:00:55;10.65;;;6.20;;
10007;SDS011;5043;41.766;26.204;2023-06-26T05:03:21;9.93;;;5.78;;
10007;SDS011;5043;41.766;26.204;2023-06-26T05:05:47;11.30;;;5.72;;
10007;SDS011;5043;41.766;26.204;2023-06-26T05:08:20;14.82;;;6.05;;
10007;SDS011;5043;41.766;26.204;2023-06-26T05:10:51;9.68;;;6.20;;
10007;SDS011;5043;41.766;26.204;2023-06-26T05:13:18;12.10;;;6.00;;
10007;SDS011;5043;41.766;26.204;2023-06-26T05:15:45;14.40;;;6.55;;
10007;SDS011;5043;41.766;26.204;2023-06-26T05:18:11;11.32;;;5.20;;
10007;SDS011;5043;41.766;26.204;2023-06-26T05:20:36;11.73;;;5.75;;
10007;SDS011;5043;41.766;26.204;2023-06-26T05:23:03;13.77;;;5.95;;
10007;SDS011;5043;41.766;26.204;2023-06-26T05:25:29;10.70;;;5.88;;
10007;SDS011;5043;41.766;26.204;2023-06-26T05:27:56;12.85;;;5.57;;
10007;SDS011;5043;41.766;26.204;2023-06-26T05:30:23;12.15;;;5.32;;
10007;SDS011;5043;41.766;26.204;2023-06-26T05:32:53;11.20;;;5.30;;
10007;SDS011;5043;41.766;26.204;2023-06-26T05:35:20;12.40;;;5.63;;
10007;SDS011;5043;41.766;26.204;2023-06-26T05:37:50;7.15;;;4.70;;
10007;SDS011;5043;41.766;26.204;2023-06-26T05:40:17;5.78;;;4.60;;
10007;SDS011;5043;41.766;26.204;2023-06-26T05:42:44;7.38;;;5.03;;
10007;SDS011;5043;41.766;26.204;2023-06-26T05:45:10;7.72;;;4.50;;
10007;SDS011;5043;41.766;26.204;2023-06-26T05:47:35;7.85;;;4.45;;
10007;SDS011;5043;41.766;26.204;2023-06-26T05:50:02;4.30;;;4.00;;
10007;SDS011;5043;41.766;26.204;2023-06-26T05:52:31;4.82;;;4.43;;
10007;SDS011;5043;41.766;26.204;2023-06-26T05:54:57;7.32;;;4.20;;
10007;SDS011;5043;41.766;26.204;2023-06-26T05:57:26;5.03;;;4.63;;
10007;SDS011;5043;41.766;26.204;2023-06-26T05:59:53;5.35;;;4.60;;
10007;SDS011;5043;41.766;26.204;2023-06-26T06:02:19;4.25;;;3.85;;
10007;SDS011;5043;41.766;26.204;2023-06-26T06:04:45;4.97;;;3.88;;
10007;SDS011;5043;41.766;26.204;2023-06-26T06:07:11;4.25;;;3.53;;
10007;SDS011;5043;41.766;26.204;2023-06-26T06:09:37;6.93;;;3.63;;
10007;SDS011;5043;41.766;26.204;2023-06-26T06:12:03;4.03;;;3.42;;
10007;SDS011;5043;41.766;26.204;2023-06-26T06:14:30;4.22;;;2.97;;
10007;SDS011;5043;41.766;26.204;2023-06-26T06:16:56;2.00;;;1.90;;
10007;SDS011;5043;41.766;26.204;2023-06-26T06:19:22;3.17;;;2.42;;
10007;SDS011;5043;41.766;26.204;2023-06-26T06:21:47;1.92;;;1.83;;
10007;SDS011;5043;41.766;26.204;2023-06-26T06:24:13;4.05;;;1.90;;
10007;SDS011;5043;41.766;26.204;2023-06-26T06:26:39;5.63;;;2.42;;
10007;SDS011;5043;41.766;26.204;2023-06-26T06:29:05;3.42;;;2.08;;
10007;SDS011;5043;41.766;26.204;2023-06-26T06:34:31;3.90;;;2.58;;
10007;SDS011;5043;41.766;26.204;2023-06-26T06:36:57;2.53;;;2.33;;
10007;SDS011;5043;41.766;26.204;2023-06-26T06:39:22;5.30;;;3.10;;
10007;SDS011;5043;41.766;26.204;2023-06-26T06:41:48;9.60;;;3.20;;
10007;SDS011;5043;41.766;26.204;2023-06-26T06:44:13;4.57;;;2.67;;
10007;SDS011;5043;41.766;26.204;2023-06-26T06:46:39;6.15;;;2.30;;
10007;SDS011;5043;41.766;26.204;2023-06-26T06:49:04;5.57;;;2.00;;
10007;SDS011;5043;41.766;26.204;2023-06-26T06:51:30;5.93;;;1.80;;
10007;SDS011;5043;41.766;26.204;2023-06-26T06:53:56;2.15;;;1.70;;
10007;SDS011;5043;41.766;26.204;2023-06-26T06:56:21;4.97;;;1.52;;
10007;SDS011;5043;41.766;26.204;2023-06-26T06:58:46;4.32;;;1.30;;
10007;SDS011;5043;41.766;26.204;2023-06-26T07:01:18;1.17;;;1.10;;
10007;SDS011;5043;41.766;26.204;2023-06-26T07:03:43;1.30;;;1.20;;
10007;SDS011;5043;41.766;26.204;2023-06-26T07:06:09;1.88;;;1.20;;
10007;SDS011;5043;41.766;26.204;2023-06-26T07:08:34;1.08;;;1.00;;
10007;SDS011;5043;41.766;26.204;2023-06-26T07:11:00;3.40;;;1.50;;
10007;SDS011;5043;41.766;26.204;2023-06-26T07:13:26;3.30;;;1.30;;
10007;SDS011;5043;41.766;26.204;2023-06-26T07:15:52;1.17;;;1.08;;
10007;SDS011;5043;41.766;26.204;2023-06-26T07:18:18;1.38;;;1.25;;
10007;SDS011;5043;41.766;26.204;2023-06-26T07:20:46;1.35;;;1.25;;
10007;SDS011;5043;41.766;26.204;2023-06-26T07:23:15;1.35;;;1.00;;
10007;SDS011;5043;41.766;26.204;2023-06-26T07:25:45;1.33;;;1.10;;
10007;SDS011;5043;41.766;26.204;2023-06-26T07:28:13;1.40;;;1.30;;
10007;SDS011;5043;41.766;26.204;2023-06-26T07:30:38;1.70;;;1.45;;
10007;SDS011;5043;41.766;26.204;2023-06-26T07:33:07;1.23;;;1.13;;
10007;SDS011;5043;41.766;26.204;2023-06-26T07:35:40;1.20;;;1.20;;
10007;SDS011;5043;41.766;26.204;2023-06-26T07:38:05;1.73;;;1.42;;
10007;SDS011;5043;41.766;26.204;2023-06-26T07:40:30;1.33;;;1.23;;
10007;SDS011;5043;41.766;26.204;2023-06-26T07:42:56;1.67;;;1.58;;
10007;SDS011;5043;41.766;26.204;2023-06-26T07:45:24;2.03;;;1.33;;
10007;SDS011;5043;41.766;26.204;2023-06-26T07:47:50;6.93;;;1.50;;
10007;SDS011;5043;41.766;26.204;2023-06-26T07:50:16;3.67;;;1.40;;
10007;SDS011;5043;41.766;26.204;2023-06-26T07:52:46;2.78;;;1.45;;
10007;SDS011;5043;41.766;26.204;2023-06-26T07:55:18;1.83;;;1.42;;
10007;SDS011;5043;41.766;26.204;2023-06-26T07:57:44;1.75;;;1.17;;
10007;SDS011;5043;41.766;26.204;2023-06-26T08:00:10;1.50;;;1.40;;
10007;SDS011;5043;41.766;26.204;2023-06-26T08:02:36;2.08;;;1.25;;
10007;SDS011;5043;41.766;26.204;2023-06-26T08:05:02;4.70;;;1.38;;
10007;SDS011;5043;41.766;26.204;2023-06-26T08:07:27;1.80;;;1.33;;
10007;SDS011;5043;41.766;26.204;2023-06-26T08:09:53;1.67;;;1.33;;
10007;SDS011;5043;41.766;26.204;2023-06-26T08:12:18;1.90;;;1.40;;
10007;SDS011;5043;41.766;26.204;2023-06-26T08:14:44;1.50;;;1.20;;
10007;SDS011;5043;41.766;26.204;2023-06-26T08:17:10;2.95;;;1.50;;
10007;SDS011;5043;41.766;26.204;2023-06-26T08:19:36;1.63;;;1.52;;
10007;SDS011;5043;41.766;26.204;2023-06-26T08:22:01;2.33;;;1.27;;
10007;SDS011;5043;41.766;26.204;2023-06-26T08:24:27;3.67;;;1.67;;
10007;SDS011;5043;41.766;26.204;2023-06-26T08:26:53;1.48;;;1.38;;
10007;SDS011;5043;41.766;26.204;2023-06-26T08:29:18;1.50;;;1.40;;
10007;SDS011;5043;41.766;26.204;2023-06-26T08:31:43;2.00;;;1.42;;
10007;SDS011;5043;41.766;26.204;2023-06-26T08:34:09;2.85;;;1.38;;
10007;SDS011;5043;41.766;26.204;2023-06-26T08:36:34;1.98;;;1.65;;
10007;SDS011;5043;41.766;26.204;2023-06-26T08:39:00;1.65;;;1.40;;
10007;SDS011;5043;41.766;26.204;2023-06-26T08:41:28;2.05;;;1.40;;
10007;SDS011;5043;41.766;26.204;2023-06-26T08:43:56;2.05;;;1.70;;
10007;SDS011;5043;41.766;26.204;2023-06-26T08:46:28;1.58;;;1.40;;
10007;SDS011;5043;41.766;26.204;2023-06-26T08:48:56;3.88;;;1.92;;
10007;SDS011;5043;41.766;26.204;2023-06-26T08:51:25;1.85;;;1.73;;
10007;SDS011;5043;41.766;26.204;2023-06-26T08:54:00;2.58;;;1.73;;
10007;SDS011;5043;41.766;26.204;2023-06-26T08:56:28;2.50;;;1.58;;
10007;SDS011;5043;41.766;26.204;2023-06-26T08:59:07;1.75;;;1.65;;
10007;SDS011;5043;41.766;26.204;2023-06-26T09:01:35;2.72;;;1.70;;
10007;SDS011;5043;41.766;26.204;2023-06-26T09:07:58;1.73;;;1.63;;
10007;SDS011;5043;41.766;26.204;2023-06-26T09:13:40;1.73;;;1.60;;
10007;SDS011;5043;41.766;26.204;2023-06-26T09:16:13;5.65;;;1.70;;
10007;SDS011;5043;41.766;26.204;2023-06-26T09:18:48;3.05;;;2.15;;
10007;SDS011;5043;41.766;26.204;2023-06-26T09:21:18;5.95;;;2.00;;
10007;SDS011;5043;41.766;26.204;2023-06-26T09:23:50;4.53;;;2.30;;
10007;SDS011;5043;41.766;26.204;2023-06-26T09:26:21;2.83;;;2.40;;
10007;SDS011;5043;41.766;26.204;2023-06-26T09:28:48;2.78;;;1.90;;
10007;SDS011;5043;41.766;26.204;2023-06-26T09:31:15;2.63;;;1.80;;
10007;SDS011;5043;41.766;26.204;2023-06-26T09:33:46;6.05;;;2.58;;
10007;SDS011;5043;41.766;26.204;2023-06-26T09:39:09;4.90;;;2.10;;
10007;SDS011;5043;41.766;26.204;2023-06-26T09:42:09;4.80;;;1.83;;
10007;SDS011;5043;41.766;26.204;2023-06-26T09:44:35;3.20;;;1.88;;
10007;SDS011;5043;41.766;26.204;2023-06-26T09:47:09;2.97;;;2.13;;
10007;SDS011;5043;41.766;26.204;2023-06-26T09:49:36;7.18;;;1.60;;
10007;SDS011;5043;41.766;26.204;2023-06-26T09:52:15;2.90;;;2.17;;
10007;SDS011;5043;41.766;26.204;2023-06-26T09:54:42;2.65;;;1.73;;
10007;SDS011;5043;41.766;26.204;2023-06-26T09:57:16;3.75;;;2.40;;
10007;SDS011;5043;41.766;26.204;2023-06-26T09:59:43;2.78;;;1.60;;
10007;SDS011;5043;41.766;26.204;2023-06-26T10:02:15;1.88;;;1.60;;
10007;SDS011;5043;41.766;26.204;2023-06-26T10:04:42;1.92;;;1.75;;
10007;SDS011;5043;41.766;26.204;2023-06-26T10:07:11;2.38;;;1.75;;
10007;SDS011;5043;41.766;26.204;2023-06-26T10:09:49;7.32;;;2.33;;
10007;SDS011;5043;41.766;26.204;2023-06-26T10:12:31;4.88;;;1.95;;
10007;SDS011;5043;41.766;26.204;2023-06-26T10:14:58;2.33;;;1.92;;
10007;SDS011;5043;41.766;26.204;2023-06-26T10:17:27;3.22;;;2.20;;
10007;SDS011;5043;41.766;26.204;2023-06-26T10:19:58;2.38;;;1.80;;
10007;SDS011;5043;41.766;26.204;2023-06-26T10:22:29;3.25;;;2.10;;
10007;SDS011;5043;41.766;26.204;2023-06-26T10:24:59;2.63;;;2.00;;
10007;SDS011;5043;41.766;26.204;2023-06-26T10:27:32;2.78;;;2.28;;
10007;SDS011;5043;41.766;26.204;2023-06-26T10:30:11;2.28;;;2.08;;
10007;SDS011;5043;41.766;26.204;2023-06-26T10:32:43;3.92;;;2.38;;
10007;SDS011;5043;41.766;26.204;2023-06-26T10:35:13;4.57;;;2.50;;
10007;SDS011;5043;41.766;26.204;2023-06-26T10:40:39;3.08;;;2.60;;
10007;SDS011;5043;41.766;26.204;2023-06-26T10:43:32;2.40;;;2.20;;
10007;SDS011;5043;41.766;26.204;2023-06-26T10:45:58;2.53;;;2.33;;
10007;SDS011;5043;41.766;26.204;2023-06-26T10:48:28;2.25;;;2.05;;
10007;SDS011;5043;41.766;26.204;2023-06-26T10:50:54;4.80;;;2.80;;
10007;SDS011;5043;41.766;26.204;2023-06-26T10:55:58;5.97;;;5.07;;
10007;SDS011;5043;41.766;26.204;2023-06-26T11:03:46;3.13;;;2.40;;
10007;SDS011;5043;41.766;26.204;2023-06-26T11:06:26;3.88;;;2.53;;
10007;SDS011;5043;41.766;26.204;2023-06-26T11:08:53;6.72;;;2.65;;
10007;SDS011;5043;41.766;26.204;2023-06-26T11:12:09;3.00;;;2.40;;
10007;SDS011;5043;41.766;26.204;2023-06-26T11:14:30;3.70;;;2.17;;
10007;SDS011;5043;41.766;26.204;2023-06-26T11:16:56;4.03;;;2.40;;
10007;SDS011;5043;41.766;26.204;2023-06-26T11:19:25;3.22;;;2.58;;
10007;SDS011;5043;41.766;26.204;2023-06-26T11:21:57;6.28;;;2.30;;
10007;SDS011;5043;41.766;26.204;2023-06-26T11:24:32;3.05;;;2.55;;
10007;SDS011;5043;41.766;26.204;2023-06-26T11:27:01;3.53;;;2.50;;
10007;SDS011;5043;41.766;26.204;2023-06-26T11:29:27;3.47;;;2.78;;
10007;SDS011;5043;41.766;26.204;2023-06-26T11:31:58;2.53;;;2.20;;
10007;SDS011;5043;41.766;26.204;2023-06-26T11:34:29;3.72;;;2.20;;
10007;SDS011;5043;41.766;26.204;2023-06-26T11:37:03;5.78;;;2.90;;
10007;SDS011;5043;41.766;26.204;2023-06-26T11:39:37;3.85;;;2.35;;
10007;SDS011;5043;41.766;26.204;2023-06-26T11:42:04;4.25;;;2.40;;
10007;SDS011;5043;41.766;26.204;2023-06-26T11:44:45;3.35;;;2.63;;
10007;SDS011;5043;41.766;26.204;2023-06-26T11:50:04;3.95;;;2.13;;
10007;SDS011;5043;41.766;26.204;2023-06-26T11:58:32;2.40;;;2.20;;
10007;SDS011;5043;41.766;26.204;2023-06-26T12:00:58;4.47;;;2.42;;
10007;SDS011;5043;41.766;26.204;2023-06-26T12:03:43;3.42;;;2.45;;
10007;SDS011;5043;41.766;26.204;2023-06-26T12:06:13;5.60;;;2.80;;
10007;SDS011;5043;41.766;26.204;2023-06-26T12:08:40;3.45;;;2.33;;
10007;SDS011;5043;41.766;26.204;2023-06-26T12:11:08;4.10;;;2.38;;
10007;SDS011;5043;41.766;26.204;2023-06-26T12:13:55;3.33;;;2.45;;
10007;SDS011;5043;41.766;26.204;2023-06-26T12:16:22;4.47;;;2.40;;
10007;SDS011;5043;41.766;26.204;2023-06-26T12:18:48;4.82;;;2.30;;
10007;SDS011;5043;41.766;26.204;2023-06-26T12:24:05;5.45;;;3.10;;
10007;SDS011;5043;41.766;26.204;2023-06-26T12:26:32;3.35;;;2.38;;
10007;SDS011;5043;41.766;26.204;2023-06-26T12:29:09;3.28;;;2.08;;
10007;SDS011;5043;41.766;26.204;2023-06-26T12:31:39;3.53;;;2.30;;
10007;SDS011;5043;41.766;26.204;2023-06-26T12:34:10;2.63;;;2.40;;
10007;SDS011;5043;41.766;26.204;2023-06-26T12:36:52;2.67;;;2.22;;
10007;SDS011;5043;41.766;26.204;2023-06-26T12:39:18;2.45;;;2.13;;
10007;SDS011;5043;41.766;26.204;2023-06-26T12:41:53;3.00;;;2.55;;
10007;SDS011;5043;41.766;26.204;2023-06-26T12:44:29;3.53;;;2.05;;
10007;SDS011;5043;41.766;26.204;2023-06-26T12:47:03;3.28;;;2.38;;
10007;SDS011;5043;41.766;26.204;2023-06-26T12:49:38;4.57;;;1.90;;
10007;SDS011;5043;41.766;26.204;2023-06-26T12:52:09;2.63;;;2.42;;
10007;SDS011;5043;41.766;26.204;2023-06-26T12:54:45;4.30;;;2.30;;
10007;SDS011;5043;41.766;26.204;2023-06-26T12:57:15;2.95;;;2.22;;
10007;SDS011;5043;41.766;26.204;2023-06-26T12:59:46;2.13;;;1.92;;
10007;SDS011;5043;41.766;26.204;2023-06-26T13:02:19;3.88;;;2.50;;
10007;SDS011;5043;41.766;26.204;2023-06-26T13:04:44;4.13;;;2.63;;
10007;SDS011;5043;41.766;26.204;2023-06-26T13:07:10;3.25;;;2.20;;
10007;SDS011;5043;41.766;26.204;2023-06-26T13:09:37;5.13;;;2.30;;
10007;SDS011;5043;41.766;26.204;2023-06-26T13:12:04;3.50;;;2.13;;
10007;SDS011;5043;41.766;26.204;2023-06-26T13:14:31;3.33;;;2.08;;
10007;SDS011;5043;41.766;26.204;2023-06-26T13:16:57;2.47;;;2.22;;
10007;SDS011;5043;41.766;26.204;2023-06-26T13:19:23;3.33;;;2.63;;
10007;SDS011;5043;41.766;26.204;2023-06-26T13:21:48;2.20;;;2.00;;
10007;SDS011;5043;41.766;26.204;2023-06-26T13:24:13;5.93;;;2.65;;
10007;SDS011;5043;41.766;26.204;2023-06-26T13:26:39;2.20;;;2.00;;
10007;SDS011;5043;41.766;26.204;2023-06-26T13:29:05;3.78;;;2.17;;
10007;SDS011;5043;41.766;26.204;2023-06-26T13:31:31;3.33;;;2.10;;
10007;SDS011;5043;41.766;26.204;2023-06-26T13:33:57;2.40;;;2.20;;
10007;SDS011;5043;41.766;26.204;2023-06-26T13:36:23;4.60;;;2.20;;
10007;SDS011;5043;41.766;26.204;2023-06-26T13:38:49;2.35;;;1.67;;
10007;SDS011;5043;41.766;26.204;2023-06-26T13:41:20;4.60;;;4.05;;
10007;SDS011;5043;41.766;26.204;2023-06-26T13:43:49;3.30;;;2.13;;
10007;SDS011;5043;41.766;26.204;2023-06-26T13:46:15;4.53;;;2.20;;
10007;SDS011;5043;41.766;26.204;2023-06-26T13:48:42;4.40;;;2.88;;
10007;SDS011;5043;41.766;26.204;2023-06-26T13:51:07;2.17;;;1.98;;
10007;SDS011;5043;41.766;26.204;2023-06-26T13:53:35;1.95;;;1.80;;
10007;SDS011;5043;41.766;26.204;2023-06-26T13:56:00;1.98;;;1.70;;
10007;SDS011;5043;41.766;26.204;2023-06-26T13:58:26;2.38;;;1.60;;
10007;SDS011;5043;41.766;26.204;2023-06-26T14:00:53;4.40;;;1.92;;
10007;SDS011;5043;41.766;26.204;2023-06-26T14:03:19;2.92;;;1.80;;
10007;SDS011;5043;41.766;26.204;2023-06-26T14:05:48;4.55;;;2.10;;
10007;SDS011;5043;41.766;26.204;2023-06-26T14:08:13;7.25;;;6.55;;
10007;SDS011;5043;41.766;26.204;2023-06-26T14:10:39;1.90;;;1.80;;
10007;SDS011;5043;41.766;26.204;2023-06-26T14:13:04;3.83;;;2.20;;
10007;SDS011;5043;41.766;26.204;2023-06-26T14:15:30;2.28;;;2.05;;
10007;SDS011;5043;41.766;26.204;2023-06-26T14:17:56;3.75;;;2.00;;
10007;SDS011;5043;41.766;26.204;2023-06-26T14:20:24;2.40;;;2.05;;
10007;SDS011;5043;41.766;26.204;2023-06-26T14:22:49;4.25;;;1.92;;
10007;SDS011;5043;41.766;26.204;2023-06-26T14:25:15;2.17;;;2.03;;
10007;SDS011;5043;41.766;26.204;2023-06-26T14:27:41;2.28;;;2.00;;
10007;SDS011;5043;41.766;26.204;2023-06-26T14:30:07;2.78;;;2.28;;
10007;SDS011;5043;41.766;26.204;2023-06-26T14:32:33;3.50;;;2.40;;
10007;SDS011;5043;41.766;26.204;2023-06-26T14:35:00;2.50;;;2.10;;
10007;SDS011;5043;41.766;26.204;2023-06-26T14:37:26;3.88;;;2.58;;
10007;SDS011;5043;41.766;26.204;2023-06-26T14:39:52;5.25;;;2.47;;
10007;SDS011;5043;41.766;26.204;2023-06-26T14:42:17;7.85;;;2.60;;
10007;SDS011;5043;41.766;26.204;2023-06-26T14:44:43;2.92;;;2.22;;
10007;SDS011;5043;41.766;26.204;2023-06-26T14:47:11;3.05;;;2.03;;
10007;SDS011;5043;41.766;26.204;2023-06-26T14:49:37;5.53;;;2.53;;
10007;SDS011;5043;41.766;26.204;2023-06-26T14:52:03;2.47;;;2.00;;
10007;SDS011;5043;41.766;26.204;2023-06-26T14:54:29;5.05;;;2.22;;
10007;SDS011;5043;41.766;26.204;2023-06-26T14:56:54;2.95;;;2.33;;
10007;SDS011;5043;41.766;26.204;2023-06-26T14:59:19;4.35;;;2.00;;
10007;SDS011;5043;41.766;26.204;2023-06-26T15:01:45;6.10;;;2.50;;
10007;SDS011;5043;41.766;26.204;2023-06-26T15:04:11;2.50;;;2.28;;
10007;SDS011;5043;41.766;26.204;2023-06-26T15:06:36;4.10;;;2.33;;
10007;SDS011;5043;41.766;26.204;2023-06-26T15:09:02;2.95;;;2.15;;
10007;SDS011;5043;41.766;26.204;2023-06-26T15:11:28;4.60;;;2.63;;
10007;SDS011;5043;41.766;26.204;2023-06-26T15:13:55;2.67;;;2.47;;
10007;SDS011;5043;41.766;26.204;2023-06-26T15:16:21;3.45;;;2.58;;
10007;SDS011;5043;41.766;26.204;2023-06-26T15:18:47;2.95;;;2.67;;
10007;SDS011;5043;41.766;26.204;2023-06-26T15:21:12;2.58;;;2.28;;
10007;SDS011;5043;41.766;26.204;2023-06-26T15:23:38;8.77;;;2.40;;
10007;SDS011;5043;41.766;26.204;2023-06-26T15:26:03;2.58;;;2.28;;
10007;SDS011;5043;41.766;26.204;2023-06-26T15:28:29;2.58;;;2.00;;
10007;SDS011;5043;41.766;26.204;2023-06-26T15:30:55;3.05;;;2.20;;